createdAt,value
2018-11-21T00:00:00.808Z,94.32
2018-11-21T00:01:00.818Z,94.32
2018-11-21T00:02:00.760Z,94.42
2018-11-21T00:03:00.738Z,94.60
2018-11-21T00:04:00.717Z,94.13
2018-11-21T00:05:00.696Z,93.75
2018-11-21T00:06:00.676Z,94.42
2018-11-21T00:07:00.661Z,94.42
2018-11-21T00:08:00.646Z,94.32
2018-11-21T00:09:00.607Z,94.89
2018-11-21T00:10:00.632Z,94.60
2018-11-21T00:11:00.559Z,94.42
2018-11-21T00:12:00.538Z,94.60
2018-11-21T00:13:00.534Z,94.51
2018-11-21T00:14:00.498Z,94.42
2018-11-21T00:15:00.472Z,94.70
2018-11-21T00:16:00.455Z,95.17
2018-11-21T00:17:00.444Z,95.31
2018-11-21T00:18:00.403Z,94.74
2018-11-21T00:19:00.766Z,94.93
2018-11-21T00:20:00.378Z,94.98
2018-11-21T00:21:00.336Z,95.12
2018-11-21T00:22:00.307Z,95.03
2018-11-21T00:23:00.335Z,95.03
2018-11-21T00:24:00.269Z,94.93
2018-11-21T00:25:00.261Z,95.03
2018-11-21T00:26:00.229Z,95.50
2018-11-21T00:27:00.201Z,95.41
2018-11-21T00:28:00.178Z,95.12
2018-11-21T00:29:00.180Z,95.03
2018-11-21T00:30:00.153Z,94.98
2018-11-21T00:31:00.112Z,95.12
2018-11-21T00:32:00.093Z,95.22
2018-11-21T00:33:00.067Z,95.17
2018-11-21T00:34:00.064Z,94.89
2018-11-21T00:35:00.021Z,95.12
2018-11-21T00:36:00.018Z,95.07
2018-11-21T00:36:59.974Z,95.07
2018-11-21T00:37:59.954Z,95.07
2018-11-21T00:38:59.931Z,95.12
2018-11-21T00:39:59.909Z,94.98
2018-11-21T00:40:59.884Z,95.22
2018-11-21T00:41:59.931Z,94.93
2018-11-21T00:42:59.841Z,95.03
2018-11-21T00:43:59.846Z,95.27
2018-11-21T00:44:59.804Z,95.36
2018-11-21T00:45:59.793Z,95.12
2018-11-21T00:46:59.753Z,95.03
2018-11-21T00:47:59.749Z,95.79
2018-11-21T00:48:59.709Z,95.41
2018-11-21T00:49:59.688Z,95.50
2018-11-21T00:50:59.670Z,95.69
2018-11-21T00:51:59.663Z,96.64
2018-11-21T00:52:59.621Z,96.92
2018-11-21T00:53:59.608Z,96.45
2018-11-21T00:54:59.575Z,96.73
2018-11-21T00:55:59.549Z,97.31
2018-11-21T00:57:00.143Z,97.21
2018-11-21T00:57:59.524Z,97.02
2018-11-21T00:58:59.488Z,97.59
2018-11-21T00:59:59.463Z,98.16
2018-11-21T01:00:59.443Z,98.07
2018-11-21T01:01:59.423Z,97.97
2018-11-21T01:02:59.415Z,98.25
2018-11-21T01:03:59.372Z,98.63
2018-11-21T01:04:59.358Z,98.92
2018-11-21T01:05:59.346Z,98.73
2018-11-21T01:06:59.306Z,99.01
2018-11-21T01:07:59.301Z,99.30
2018-11-21T01:08:59.279Z,99.77
2018-11-21T01:09:59.239Z,99.49
2018-11-21T01:10:59.219Z,99.58
2018-11-21T01:11:59.214Z,99.49
2018-11-21T01:12:59.173Z,99.91
2018-11-21T01:13:59.153Z,99.49
2018-11-21T01:14:59.125Z,99.99
2018-11-21T01:15:59.109Z,99.99
2018-11-21T01:16:59.077Z,99.99
2018-11-21T01:17:59.078Z,99.99
2018-11-21T01:18:59.037Z,99.99
2018-11-21T01:19:59.022Z,99.99
2018-11-21T01:20:59.017Z,99.99
2018-11-21T01:21:58.978Z,99.91
2018-11-21T01:22:58.987Z,99.99
2018-11-21T01:23:58.939Z,99.99
2018-11-21T01:24:58.907Z,99.99
2018-11-21T01:25:58.898Z,99.99
2018-11-21T01:26:58.858Z,99.99
2018-11-21T01:27:58.833Z,99.91
2018-11-21T01:28:58.828Z,99.99
2018-11-21T01:29:58.792Z,99.99
2018-11-21T01:30:58.792Z,99.99
2018-11-21T01:31:58.780Z,99.99
2018-11-21T01:32:58.724Z,99.99
2018-11-21T01:33:58.703Z,99.99
2018-11-21T01:34:58.692Z,99.99
2018-11-21T01:35:58.654Z,99.99
2018-11-21T01:36:58.629Z,99.99
2018-11-21T01:37:58.614Z,99.99
2018-11-21T01:38:58.591Z,99.99
2018-11-21T01:39:58.570Z,99.99
2018-11-21T01:40:58.563Z,99.99
2018-11-21T01:41:58.524Z,99.99
2018-11-21T01:42:58.515Z,99.99
2018-11-21T01:43:58.477Z,99.99
2018-11-21T01:44:58.457Z,99.99
2018-11-21T01:45:58.431Z,99.99
2018-11-21T01:46:58.404Z,99.99
2018-11-21T01:47:58.409Z,99.99
2018-11-21T01:48:58.367Z,99.99
2018-11-21T01:49:58.342Z,99.99
2018-11-21T01:50:58.322Z,99.99
2018-11-21T01:51:58.304Z,99.99
2018-11-21T01:52:58.293Z,99.91
2018-11-21T01:53:58.250Z,99.99
2018-11-21T01:54:58.231Z,99.82
2018-11-21T01:55:58.230Z,99.99
2018-11-21T01:56:58.183Z,99.99
2018-11-21T01:57:58.183Z,99.99
2018-11-21T01:58:58.138Z,99.99
2018-11-21T01:59:58.117Z,99.99
2018-11-21T02:00:58.092Z,99.99
2018-11-21T02:01:58.070Z,99.99
2018-11-21T02:02:58.060Z,99.91
2018-11-21T02:03:58.052Z,99.99
2018-11-21T02:04:58.008Z,99.99
2018-11-21T02:05:57.985Z,99.99
2018-11-21T02:06:57.959Z,99.99
2018-11-21T02:07:57.937Z,99.99
2018-11-21T02:08:57.927Z,99.99
2018-11-21T02:09:57.895Z,99.99
2018-11-21T02:10:57.868Z,99.99
2018-11-21T02:11:57.852Z,99.99
2018-11-21T02:12:57.822Z,99.99
2018-11-21T02:13:57.813Z,99.99
2018-11-21T02:14:57.791Z,99.99
2018-11-21T02:15:57.756Z,99.99
2018-11-21T02:16:57.732Z,99.99
2018-11-21T02:17:57.704Z,99.99
2018-11-21T02:18:57.688Z,99.99
2018-11-21T02:19:57.664Z,99.99
2018-11-21T02:20:57.658Z,99.99
2018-11-21T02:21:57.620Z,99.99
2018-11-21T02:22:57.597Z,99.99
2018-11-21T02:23:57.575Z,99.99
2018-11-21T02:24:57.551Z,99.99
2018-11-21T02:25:57.530Z,99.99
2018-11-21T02:26:57.524Z,99.99
2018-11-21T02:27:57.483Z,99.99
2018-11-21T02:28:57.461Z,99.99
2018-11-21T02:29:57.440Z,99.99
2018-11-21T02:30:57.416Z,99.99
2018-11-21T02:31:57.393Z,99.99
2018-11-21T02:32:57.384Z,99.99
2018-11-21T02:33:57.349Z,99.99
2018-11-21T02:34:57.328Z,99.99
2018-11-21T02:35:57.303Z,99.99
2018-11-21T02:36:57.282Z,99.99
2018-11-21T02:37:57.276Z,99.99
2018-11-21T02:38:57.242Z,99.99
2018-11-21T02:39:57.224Z,99.99
2018-11-21T02:40:57.207Z,99.99
2018-11-21T02:41:57.187Z,99.99
2018-11-21T02:42:57.171Z,99.99
2018-11-21T02:43:57.132Z,99.99
2018-11-21T02:44:57.102Z,99.99
2018-11-21T02:45:57.075Z,99.99
2018-11-21T02:46:57.057Z,99.99
2018-11-21T02:47:57.040Z,99.99
2018-11-21T02:48:57.028Z,99.99
2018-11-21T02:49:56.988Z,99.99
2018-11-21T02:50:56.965Z,99.99
2018-11-21T02:51:56.942Z,99.99
2018-11-21T02:52:56.940Z,99.99
2018-11-21T02:53:56.914Z,99.99
2018-11-21T02:54:56.887Z,99.99
2018-11-21T02:55:56.851Z,99.99
2018-11-21T02:56:56.836Z,99.99
2018-11-21T02:57:56.826Z,99.99
2018-11-21T02:58:56.814Z,99.99
2018-11-21T02:59:56.764Z,99.99
2018-11-21T03:00:56.744Z,99.99
2018-11-21T03:01:56.716Z,99.99
2018-11-21T03:02:56.689Z,99.99
2018-11-21T03:03:56.672Z,99.99
2018-11-21T03:04:56.661Z,99.99
2018-11-21T03:05:56.624Z,99.99
2018-11-21T03:06:56.604Z,99.99
2018-11-21T03:07:56.615Z,99.99
2018-11-21T03:08:56.556Z,99.99
2018-11-21T03:09:56.531Z,99.99
2018-11-21T03:10:56.529Z,99.99
2018-11-21T03:11:56.494Z,99.99
2018-11-21T03:12:56.465Z,99.99
2018-11-21T03:13:56.446Z,99.99
2018-11-21T03:14:56.424Z,99.99
2018-11-21T03:15:56.416Z,99.99
2018-11-21T03:16:56.376Z,99.99
2018-11-21T03:17:56.357Z,99.99
2018-11-21T03:18:56.337Z,99.99
2018-11-21T03:19:56.309Z,99.99
2018-11-21T03:20:56.307Z,99.99
2018-11-21T03:21:56.267Z,99.99
2018-11-21T03:22:56.240Z,99.99
2018-11-21T03:23:56.226Z,99.99
2018-11-21T03:24:56.193Z,99.99
2018-11-21T03:25:56.195Z,99.99
2018-11-21T03:26:56.148Z,99.99
2018-11-21T03:27:56.127Z,99.99
2018-11-21T03:28:56.108Z,99.99
2018-11-21T03:29:56.082Z,99.99
2018-11-21T03:30:56.072Z,99.99
2018-11-21T03:31:56.055Z,99.99
2018-11-21T03:32:56.018Z,99.99
2018-11-21T03:33:57.828Z,99.99
2018-11-21T03:34:55.973Z,99.99
2018-11-21T03:35:55.956Z,99.99
2018-11-21T03:36:55.949Z,99.99
2018-11-21T03:37:55.911Z,99.99
2018-11-21T03:38:55.876Z,99.99
2018-11-21T03:39:55.855Z,99.99
2018-11-21T03:40:55.836Z,99.99
2018-11-21T03:41:55.816Z,99.99
2018-11-21T03:42:55.807Z,99.99
2018-11-21T03:43:55.764Z,99.99
2018-11-21T03:44:55.756Z,99.99
2018-11-21T03:45:55.723Z,99.99
2018-11-21T03:46:55.700Z,99.99
2018-11-21T03:47:55.692Z,99.99
2018-11-21T03:48:55.653Z,99.99
2018-11-21T03:49:55.636Z,99.99
2018-11-21T03:50:55.622Z,99.99
2018-11-21T03:51:55.588Z,99.99
2018-11-21T03:52:55.578Z,99.99
2018-11-21T03:53:55.540Z,99.99
2018-11-21T03:54:55.518Z,99.99
2018-11-21T03:55:55.508Z,99.99
2018-11-21T03:56:55.473Z,99.99
2018-11-21T03:57:55.451Z,99.99
2018-11-21T03:58:55.443Z,99.99
2018-11-21T03:59:55.403Z,99.99
2018-11-21T04:00:55.379Z,99.99
2018-11-21T04:01:55.363Z,99.99
2018-11-21T04:02:55.334Z,99.99
2018-11-21T04:03:55.329Z,99.99
2018-11-21T04:04:55.295Z,99.99
2018-11-21T04:05:55.266Z,99.99
2018-11-21T04:06:55.358Z,99.99
2018-11-21T04:07:55.221Z,99.99
2018-11-21T04:08:55.197Z,99.99
2018-11-21T04:09:55.203Z,99.99
2018-11-21T04:10:55.151Z,99.99
2018-11-21T04:11:55.129Z,99.99
2018-11-21T04:12:55.111Z,99.99
2018-11-21T04:13:55.087Z,99.99
2018-11-21T04:14:55.084Z,99.99
2018-11-21T04:15:55.625Z,99.99
2018-11-21T04:16:55.020Z,99.99
2018-11-21T04:17:54.996Z,99.99
2018-11-21T04:18:54.975Z,99.99
2018-11-21T04:19:54.955Z,99.99
2018-11-21T04:20:54.950Z,99.99
2018-11-21T04:21:54.907Z,99.99
2018-11-21T04:22:54.886Z,99.99
2018-11-21T04:23:54.863Z,99.99
2018-11-21T04:24:54.837Z,99.99
2018-11-21T04:25:54.843Z,99.99
2018-11-21T04:26:54.809Z,99.99
2018-11-21T04:27:54.814Z,99.99
2018-11-21T04:28:54.748Z,99.99
2018-11-21T04:29:54.771Z,99.99
2018-11-21T04:30:54.697Z,99.99
2018-11-21T04:31:54.696Z,99.99
2018-11-21T04:32:54.659Z,99.99
2018-11-21T04:33:54.637Z,99.99
2018-11-21T04:34:54.616Z,99.99
2018-11-21T04:35:54.591Z,99.99
2018-11-21T04:36:54.567Z,99.99
2018-11-21T04:37:54.563Z,99.99
2018-11-21T04:38:54.523Z,99.99
2018-11-21T04:39:54.502Z,99.99
2018-11-21T04:40:54.475Z,99.99
2018-11-21T04:41:54.457Z,99.99
2018-11-21T04:42:54.431Z,99.99
2018-11-21T04:43:54.423Z,99.99
2018-11-21T04:44:54.385Z,99.99
2018-11-21T04:45:54.360Z,99.99
2018-11-21T04:46:54.339Z,99.99
2018-11-21T04:47:54.317Z,99.99
2018-11-21T04:48:54.318Z,99.99
2018-11-21T04:49:54.273Z,99.99
2018-11-21T04:50:54.249Z,99.99
2018-11-21T04:51:54.222Z,99.99
2018-11-21T04:52:54.219Z,99.99
2018-11-21T04:53:54.197Z,99.99
2018-11-21T04:54:54.157Z,99.99
2018-11-21T04:55:54.141Z,99.99
2018-11-21T04:56:54.110Z,99.99
2018-11-21T04:57:54.101Z,99.99
2018-11-21T04:58:54.067Z,99.99
2018-11-21T04:59:54.056Z,99.99
2018-11-21T05:00:54.022Z,99.99
2018-11-21T05:01:54.001Z,99.99
2018-11-21T05:02:53.972Z,99.99
2018-11-21T05:03:53.969Z,99.99
2018-11-21T05:04:53.948Z,99.99
2018-11-21T05:05:53.905Z,99.99
2018-11-21T05:06:53.887Z,99.99
2018-11-21T05:07:53.860Z,99.99
2018-11-21T05:08:53.842Z,99.99
2018-11-21T05:09:53.817Z,99.99
2018-11-21T05:10:53.807Z,99.99
2018-11-21T05:11:53.788Z,99.99
2018-11-21T05:12:53.771Z,99.99
2018-11-21T05:13:53.732Z,99.99
2018-11-21T05:14:53.697Z,99.99
2018-11-21T05:15:53.698Z,99.99
2018-11-21T05:16:53.657Z,99.99
2018-11-21T05:17:53.631Z,99.99
2018-11-21T05:18:53.610Z,99.99
2018-11-21T05:19:53.587Z,99.99
2018-11-21T05:20:53.562Z,99.99
2018-11-21T05:21:53.559Z,99.99
2018-11-21T05:22:53.526Z,99.99
2018-11-21T05:23:53.498Z,99.99
2018-11-21T05:24:53.475Z,99.99
2018-11-21T05:25:53.449Z,99.99
2018-11-21T05:26:53.443Z,99.99
2018-11-21T05:27:53.422Z,99.99
2018-11-21T05:28:53.383Z,99.99
2018-11-21T05:29:53.356Z,99.99
2018-11-21T05:30:53.344Z,99.99
2018-11-21T05:31:53.313Z,99.99
2018-11-21T05:32:53.304Z,99.99
2018-11-21T05:33:53.265Z,99.99
2018-11-21T05:34:53.243Z,99.99
2018-11-21T05:35:53.221Z,99.99
2018-11-21T05:36:53.200Z,99.99
2018-11-21T05:37:53.288Z,99.99
2018-11-21T05:38:53.168Z,99.99
2018-11-21T05:39:53.124Z,99.99
2018-11-21T05:40:53.097Z,99.99
2018-11-21T05:41:53.079Z,99.99
2018-11-21T05:42:53.051Z,99.99
2018-11-21T05:43:53.048Z,99.99
2018-11-21T05:44:53.013Z,99.99
2018-11-21T05:45:52.987Z,99.99
2018-11-21T05:46:53.786Z,99.99
2018-11-21T05:47:52.938Z,99.99
2018-11-21T05:48:52.929Z,99.99
2018-11-21T05:49:52.887Z,99.99
2018-11-21T05:50:52.879Z,99.99
2018-11-21T05:51:52.838Z,99.99
2018-11-21T05:52:52.839Z,99.99
2018-11-21T05:53:52.815Z,99.99
2018-11-21T05:54:52.785Z,99.99
2018-11-21T05:55:52.748Z,99.99
2018-11-21T05:56:52.728Z,99.99
2018-11-21T05:57:52.707Z,99.99
2018-11-21T05:58:52.681Z,99.99
2018-11-21T05:59:52.671Z,99.99
2018-11-21T06:00:52.632Z,99.99
2018-11-21T06:01:52.609Z,99.99
2018-11-21T06:02:52.588Z,99.99
2018-11-21T06:03:52.567Z,99.99
2018-11-21T06:04:52.586Z,99.99
2018-11-21T06:05:52.520Z,99.99
2018-11-21T06:06:52.498Z,99.99
2018-11-21T06:07:52.470Z,99.99
2018-11-21T06:08:52.448Z,99.99
2018-11-21T06:09:52.423Z,99.99
2018-11-21T06:10:52.416Z,99.99
2018-11-21T06:11:52.373Z,99.99
2018-11-21T06:12:52.356Z,99.99
2018-11-21T06:13:52.332Z,99.99
2018-11-21T06:14:52.311Z,99.99
2018-11-21T06:15:52.285Z,99.99
2018-11-21T06:16:52.270Z,99.99
2018-11-21T06:17:52.244Z,99.99
2018-11-21T06:18:52.213Z,99.99
2018-11-21T06:19:52.184Z,99.99
2018-11-21T06:20:52.177Z,99.99
2018-11-21T06:21:52.152Z,99.99
2018-11-21T06:22:52.144Z,99.99
2018-11-21T06:23:52.091Z,99.99
2018-11-21T06:24:52.075Z,99.99
2018-11-21T06:25:52.062Z,99.99
2018-11-21T06:26:52.025Z,99.99
2018-11-21T06:27:52.016Z,99.99
2018-11-21T06:28:51.972Z,99.99
2018-11-21T06:29:51.950Z,99.99
2018-11-21T06:30:51.937Z,99.99
2018-11-21T06:31:51.915Z,99.99
2018-11-21T06:32:51.891Z,99.99
2018-11-21T06:33:51.852Z,99.99
2018-11-21T06:34:51.833Z,99.99
2018-11-21T06:35:51.808Z,99.99
2018-11-21T06:36:51.802Z,99.99
2018-11-21T06:37:51.760Z,99.99
2018-11-21T06:38:51.734Z,99.99
2018-11-21T06:39:51.712Z,99.99
2018-11-21T06:40:51.702Z,99.99
2018-11-21T06:41:51.678Z,99.99
2018-11-21T06:42:51.660Z,99.99
2018-11-21T06:43:51.628Z,99.99
2018-11-21T06:44:51.605Z,99.99
2018-11-21T06:45:51.571Z,99.99
2018-11-21T06:46:51.549Z,99.99
2018-11-21T06:47:51.523Z,99.99
2018-11-21T06:48:51.521Z,99.99
2018-11-21T06:49:51.475Z,99.99
2018-11-21T06:50:51.458Z,99.99
2018-11-21T06:51:51.465Z,99.99
2018-11-21T06:52:51.402Z,99.99
2018-11-21T06:53:51.399Z,99.99
2018-11-21T06:54:51.373Z,99.99
2018-11-21T06:55:51.337Z,99.99
2018-11-21T06:56:51.312Z,99.99
2018-11-21T06:57:51.293Z,99.99
2018-11-21T06:58:55.086Z,99.99
2018-11-21T06:59:51.258Z,99.99
2018-11-21T07:00:51.223Z,99.99
2018-11-21T07:01:51.199Z,99.99
2018-11-21T07:02:51.178Z,99.99
2018-11-21T07:03:51.146Z,99.99
2018-11-21T07:04:51.139Z,99.99
2018-11-21T07:05:51.099Z,99.99
2018-11-21T07:06:51.077Z,99.99
2018-11-21T07:07:51.052Z,99.99
2018-11-21T07:08:51.026Z,99.99
2018-11-21T07:09:51.023Z,99.99
2018-11-21T07:10:50.982Z,99.99
2018-11-21T07:11:50.976Z,99.99
2018-11-21T07:12:50.935Z,99.99
2018-11-21T07:13:50.905Z,99.99
2018-11-21T07:14:50.886Z,99.99
2018-11-21T07:15:50.887Z,99.99
2018-11-21T07:16:50.858Z,99.99
2018-11-21T07:17:50.816Z,99.99
2018-11-21T07:18:50.788Z,99.99
2018-11-21T07:19:50.766Z,99.99
2018-11-21T07:20:50.764Z,99.99
2018-11-21T07:21:50.738Z,99.99
2018-11-21T07:22:50.705Z,99.99
2018-11-21T07:23:50.724Z,99.99
2018-11-21T07:24:50.652Z,99.99
2018-11-21T07:25:50.623Z,99.99
2018-11-21T07:26:50.618Z,99.99
2018-11-21T07:27:50.583Z,99.99
2018-11-21T07:28:50.559Z,99.99
2018-11-21T07:29:50.563Z,99.99
2018-11-21T07:30:50.508Z,99.99
2018-11-21T07:31:50.494Z,99.99
2018-11-21T07:32:50.474Z,99.99
2018-11-21T07:33:50.443Z,99.99
2018-11-21T07:34:50.416Z,99.99
2018-11-21T07:35:50.408Z,99.99
2018-11-21T07:36:50.380Z,99.99
2018-11-21T07:37:50.346Z,99.99
2018-11-21T07:38:50.317Z,99.99
2018-11-21T07:39:50.298Z,99.99
2018-11-21T07:40:50.306Z,99.99
2018-11-21T07:41:50.257Z,99.99
2018-11-21T07:42:50.225Z,99.99
2018-11-21T07:43:50.204Z,99.99
2018-11-21T07:44:50.235Z,99.99
2018-11-21T07:45:50.155Z,99.99
2018-11-21T07:46:50.149Z,99.99
2018-11-21T07:47:50.123Z,99.99
2018-11-21T07:48:50.087Z,99.99
2018-11-21T07:49:50.063Z,99.99
2018-11-21T07:50:50.041Z,99.99
2018-11-21T07:51:50.034Z,99.99
2018-11-21T07:52:49.991Z,99.99
2018-11-21T07:53:49.977Z,99.99
2018-11-21T07:54:49.968Z,99.99
2018-11-21T07:55:49.917Z,99.99
2018-11-21T07:56:49.899Z,99.99
2018-11-21T07:57:49.879Z,99.99
2018-11-21T07:58:49.854Z,99.99
2018-11-21T07:59:54.446Z,99.99
2018-11-21T08:00:49.827Z,99.99
2018-11-21T08:01:49.781Z,99.99
2018-11-21T08:02:49.753Z,99.99
2018-11-21T08:03:49.747Z,99.99
2018-11-21T08:04:49.707Z,99.99
2018-11-21T08:05:49.692Z,99.99
2018-11-21T08:06:49.658Z,99.99
2018-11-21T08:07:49.662Z,99.99
2018-11-21T08:08:49.620Z,99.99
2018-11-21T08:09:49.590Z,99.99
2018-11-21T08:10:49.596Z,99.99
2018-11-21T08:11:49.563Z,99.99
2018-11-21T08:12:49.527Z,99.99
2018-11-21T08:13:49.496Z,99.99
2018-11-21T08:14:49.501Z,99.99
2018-11-21T08:15:49.452Z,99.99
2018-11-21T08:16:49.428Z,99.99
2018-11-21T08:17:49.407Z,99.99
2018-11-21T08:18:49.377Z,99.99
2018-11-21T08:19:49.380Z,99.99
2018-11-21T08:20:49.339Z,99.99
2018-11-21T08:21:49.313Z,99.99
2018-11-21T08:22:49.288Z,99.99
2018-11-21T08:23:55.382Z,99.99
2018-11-21T08:24:49.256Z,99.99
2018-11-21T08:25:49.237Z,99.99
2018-11-21T08:26:49.193Z,99.99
2018-11-21T08:27:49.176Z,99.99
2018-11-21T08:28:49.161Z,99.99
2018-11-21T08:29:49.125Z,99.99
2018-11-21T08:30:49.096Z,99.99
2018-11-21T08:31:49.103Z,99.99
2018-11-21T08:32:49.054Z,99.99
2018-11-21T08:33:49.033Z,99.99
2018-11-21T08:34:49.009Z,99.99
2018-11-21T08:35:48.984Z,99.99
2018-11-21T08:36:48.983Z,99.99
2018-11-21T08:37:48.938Z,99.99
2018-11-21T08:38:48.922Z,99.99
2018-11-21T08:39:48.888Z,99.99
2018-11-21T08:40:48.887Z,99.99
2018-11-21T08:41:48.847Z,99.99
2018-11-21T08:42:48.842Z,99.99
2018-11-21T08:43:48.799Z,99.99
2018-11-21T08:44:48.776Z,99.99
2018-11-21T08:45:48.752Z,99.99
2018-11-21T08:46:48.756Z,99.99
2018-11-21T08:47:48.706Z,99.99
2018-11-21T08:48:48.684Z,99.99
2018-11-21T08:49:48.656Z,99.99
2018-11-21T08:50:48.642Z,99.99
2018-11-21T08:51:48.629Z,99.99
2018-11-21T08:52:48.597Z,99.99
2018-11-21T08:53:48.568Z,99.99
2018-11-21T08:54:48.546Z,99.99
2018-11-21T08:55:48.522Z,99.99
2018-11-21T08:56:48.554Z,99.99
2018-11-21T08:57:48.483Z,99.99
2018-11-21T08:58:48.451Z,99.99
2018-11-21T08:59:48.428Z,99.99
2018-11-21T09:00:48.406Z,99.99
2018-11-21T09:01:48.380Z,99.99
2018-11-21T09:02:48.379Z,99.99
2018-11-21T09:03:48.346Z,99.99
2018-11-21T09:04:48.332Z,99.99
2018-11-21T09:05:48.291Z,99.99
2018-11-21T09:06:48.264Z,99.99
2018-11-21T09:07:48.261Z,99.99
2018-11-21T09:08:48.221Z,99.99
2018-11-21T09:09:48.196Z,99.99
2018-11-21T09:10:48.191Z,99.99
2018-11-21T09:11:48.154Z,99.99
2018-11-21T09:12:48.129Z,99.99
2018-11-21T09:13:48.934Z,99.99
2018-11-21T09:14:48.083Z,99.99
2018-11-21T09:15:48.063Z,99.99
2018-11-21T09:16:48.050Z,99.99
2018-11-21T09:17:48.017Z,99.99
2018-11-21T09:18:48.003Z,99.99
2018-11-21T09:19:47.971Z,99.99
2018-11-21T09:20:47.948Z,99.99
2018-11-21T09:21:47.932Z,99.99
2018-11-21T09:22:47.904Z,99.99
2018-11-21T09:23:47.879Z,99.99
2018-11-21T09:24:47.872Z,99.99
2018-11-21T09:25:47.832Z,99.99
2018-11-21T09:26:47.825Z,99.99
2018-11-21T09:27:47.785Z,99.99
2018-11-21T09:28:47.762Z,99.99
2018-11-21T09:29:47.748Z,99.99
2018-11-21T09:30:47.719Z,99.99
2018-11-21T09:31:47.718Z,99.99
2018-11-21T09:32:47.675Z,99.99
2018-11-21T09:33:47.679Z,99.99
2018-11-21T09:34:47.637Z,99.99
2018-11-21T09:35:47.607Z,99.99
2018-11-21T09:36:47.583Z,99.99
2018-11-21T09:37:47.586Z,99.99
2018-11-21T09:38:47.547Z,99.99
2018-11-21T09:39:47.515Z,99.99
2018-11-21T09:40:47.499Z,99.99
2018-11-21T09:41:47.476Z,99.99
2018-11-21T09:42:47.457Z,99.99
2018-11-21T09:43:47.452Z,99.99
2018-11-21T09:44:47.405Z,99.99
2018-11-21T09:45:47.383Z,99.99
2018-11-21T09:46:47.362Z,99.99
2018-11-21T09:47:47.342Z,99.99
2018-11-21T09:48:47.321Z,99.63
2018-11-21T09:49:47.317Z,98.30
2018-11-21T09:50:47.290Z,97.92
2018-11-21T09:51:47.251Z,97.64
2018-11-21T09:52:50.304Z,98.02
2018-11-21T09:53:47.211Z,98.49
2018-11-21T09:54:47.193Z,98.68
2018-11-21T09:55:47.837Z,98.02
2018-11-21T09:56:47.157Z,98.11
2018-11-21T09:57:47.118Z,97.92
2018-11-21T09:58:47.093Z,98.40
2018-11-21T09:59:48.080Z,98.11
2018-11-21T10:00:47.050Z,99.06
2018-11-21T10:01:47.043Z,98.49
2018-11-21T10:02:47.008Z,98.30
2018-11-21T10:03:46.980Z,98.49
2018-11-21T10:04:46.962Z,98.02
2018-11-21T10:05:47.562Z,97.55
2018-11-21T10:06:46.930Z,96.88
2018-11-21T10:07:46.894Z,96.59
2018-11-21T10:08:46.872Z,96.88
2018-11-21T10:09:46.851Z,96.12
2018-11-21T10:10:46.833Z,96.36
2018-11-21T10:11:46.816Z,96.26
2018-11-21T10:12:46.784Z,95.03
2018-11-21T10:13:46.756Z,94.84
2018-11-21T10:14:46.756Z,94.84
2018-11-21T10:15:46.719Z,94.65
2018-11-21T10:16:46.687Z,93.89
2018-11-21T10:17:46.673Z,94.27
2018-11-21T10:18:46.647Z,94.65
2018-11-21T10:19:46.660Z,94.37
2018-11-21T10:20:46.609Z,94.27
2018-11-21T10:21:46.587Z,93.51
2018-11-21T10:22:46.580Z,94.03
2018-11-21T10:23:46.540Z,94.42
2018-11-21T10:24:46.515Z,94.23
2018-11-21T10:25:46.496Z,94.23
2018-11-21T10:26:46.489Z,94.42
2018-11-21T10:27:46.464Z,93.32
2018-11-21T10:28:46.425Z,93.80
2018-11-21T10:29:46.418Z,93.70
2018-11-21T10:30:46.382Z,93.89
2018-11-21T10:31:46.363Z,93.13
2018-11-21T10:32:46.344Z,93.41
2018-11-21T10:33:46.319Z,92.75
2018-11-21T10:34:46.313Z,93.08
2018-11-21T10:35:46.286Z,92.85
2018-11-21T10:36:46.252Z,93.04
2018-11-21T10:37:46.228Z,92.56
2018-11-21T10:38:46.207Z,92.47
2018-11-21T10:39:46.202Z,92.66
2018-11-21T10:40:46.163Z,92.75
2018-11-21T10:41:46.144Z,93.51
2018-11-21T10:42:46.153Z,92.80
2018-11-21T10:43:46.111Z,92.56
2018-11-21T10:44:46.078Z,92.56
2018-11-21T10:45:46.058Z,92.66
2018-11-21T10:46:46.029Z,92.14
2018-11-21T10:47:46.010Z,92.85
2018-11-21T10:48:46.013Z,92.75
2018-11-21T10:49:45.971Z,92.85
2018-11-21T10:50:45.943Z,93.13
2018-11-21T10:51:45.922Z,92.94
2018-11-21T10:52:45.900Z,92.75
2018-11-21T10:53:45.889Z,92.37
2018-11-21T10:54:45.878Z,92.18
2018-11-21T10:55:45.852Z,92.18
2018-11-21T10:56:45.812Z,92.18
2018-11-21T10:57:45.794Z,91.71
2018-11-21T10:58:45.770Z,91.71
2018-11-21T10:59:45.748Z,91.61
2018-11-21T11:00:45.748Z,91.52
2018-11-21T11:01:45.718Z,91.71
2018-11-21T11:02:45.684Z,91.61
2018-11-21T11:03:45.663Z,91.61
2018-11-21T11:04:45.646Z,91.24
2018-11-21T11:05:45.646Z,91.24
2018-11-21T11:06:45.600Z,91.42
2018-11-21T11:07:45.594Z,91.33
2018-11-21T11:08:45.559Z,91.42
2018-11-21T11:09:45.548Z,90.19
2018-11-21T11:10:45.530Z,90.47
2018-11-21T11:11:45.505Z,89.72
2018-11-21T11:12:45.487Z,89.72
2018-11-21T11:13:45.454Z,89.90
2018-11-21T11:14:45.438Z,89.67
2018-11-21T11:15:45.411Z,88.81
2018-11-21T11:16:45.416Z,88.15
2018-11-21T11:17:45.385Z,87.86
2018-11-21T11:18:45.345Z,87.48
2018-11-21T11:19:45.326Z,87.67
2018-11-21T11:20:45.301Z,87.67
2018-11-21T11:21:45.292Z,87.48
2018-11-21T11:22:45.273Z,87.38
2018-11-21T11:23:45.273Z,87.10
2018-11-21T11:24:45.224Z,87.19
2018-11-21T11:25:45.204Z,86.82
2018-11-21T11:26:45.183Z,86.34
2018-11-21T11:27:45.163Z,86.43
2018-11-21T11:28:45.164Z,87.01
2018-11-21T11:29:45.119Z,86.34
2018-11-21T11:30:45.100Z,86.43
2018-11-21T11:31:45.080Z,86.24
2018-11-21T11:32:45.063Z,86.72
2018-11-21T11:33:45.059Z,87.38
2018-11-21T11:34:45.020Z,87.05
2018-11-21T11:35:45.007Z,87.19
2018-11-21T11:36:44.980Z,88.05
2018-11-21T11:37:44.972Z,87.38
2018-11-21T11:38:44.960Z,87.62
2018-11-21T11:39:44.942Z,87.62
2018-11-21T11:40:44.895Z,88.39
2018-11-21T11:41:44.892Z,87.72
2018-11-21T11:42:44.863Z,88.39
2018-11-21T11:43:44.859Z,88.39
2018-11-21T11:44:44.817Z,88.39
2018-11-21T11:45:44.854Z,88.29
2018-11-21T11:46:44.770Z,88.57
2018-11-21T11:47:44.763Z,88.29
2018-11-21T11:48:44.728Z,87.82
2018-11-21T11:49:44.718Z,88.86
2018-11-21T11:50:44.686Z,89.05
2018-11-21T11:51:44.686Z,88.95
2018-11-21T11:52:44.645Z,88.39
2018-11-21T11:53:44.648Z,88.24
2018-11-21T11:54:44.602Z,87.86
2018-11-21T11:55:44.585Z,87.76
2018-11-21T11:56:44.590Z,88.24
2018-11-21T11:57:44.545Z,87.95
2018-11-21T11:58:44.523Z,87.86
2018-11-21T11:59:44.498Z,88.34
2018-11-21T12:00:44.478Z,87.95
2018-11-21T12:01:44.478Z,88.43
2018-11-21T12:02:44.431Z,87.48
2018-11-21T12:03:44.416Z,87.67
2018-11-21T12:04:44.394Z,86.91
2018-11-21T12:05:44.383Z,88.24
2018-11-21T12:06:44.360Z,89.00
2018-11-21T12:07:44.348Z,89.28
2018-11-21T12:08:44.314Z,89.19
2018-11-21T12:09:44.295Z,89.09
2018-11-21T12:10:44.289Z,89.24
2018-11-21T12:11:44.254Z,88.86
2018-11-21T12:12:44.236Z,89.24
2018-11-21T12:13:44.214Z,88.57
2018-11-21T12:14:44.187Z,88.95
2018-11-21T12:15:44.194Z,88.86
2018-11-21T12:16:44.148Z,88.86
2018-11-21T12:17:44.129Z,88.95
2018-11-21T12:18:44.109Z,88.53
2018-11-21T12:19:44.085Z,88.90
2018-11-21T12:20:44.072Z,88.43
2018-11-21T12:21:44.063Z,88.53
2018-11-21T12:22:44.027Z,88.43
2018-11-21T12:23:44.005Z,87.95
2018-11-21T12:24:43.994Z,88.43
2018-11-21T12:25:43.965Z,88.71
2018-11-21T12:26:43.960Z,88.71
2018-11-21T12:27:43.924Z,88.90
2018-11-21T12:28:43.902Z,88.53
2018-11-21T12:29:43.881Z,88.43
2018-11-21T12:30:43.860Z,88.34
2018-11-21T12:31:43.864Z,87.67
2018-11-21T12:32:43.821Z,87.57
2018-11-21T12:33:43.799Z,87.57
2018-11-21T12:34:43.785Z,87.48
2018-11-21T12:35:43.761Z,87.29
2018-11-21T12:36:43.765Z,86.57
2018-11-21T12:37:43.712Z,86.29
2018-11-21T12:38:43.692Z,87.34
2018-11-21T12:39:43.673Z,86.10
2018-11-21T12:40:43.653Z,86.10
2018-11-21T12:41:43.631Z,85.81
2018-11-21T12:42:43.626Z,85.24
2018-11-21T12:43:43.612Z,84.86
2018-11-21T12:44:43.571Z,84.67
2018-11-21T12:45:43.555Z,84.48
2018-11-21T12:46:43.540Z,85.05
2018-11-21T12:47:43.519Z,85.24
2018-11-21T12:48:43.489Z,85.24
2018-11-21T12:49:43.469Z,85.24
2018-11-21T12:50:43.443Z,85.53
2018-11-21T12:51:43.417Z,85.53